Time;durP1;ratioP1;P1;durP2;ratioP2;P2;SDS_P1;SDS_P2;PMS_P1;PMS_P2;Temp;Humidity;BMP_temperature;BMP_pressure;BME280_temperature;BME280_humidity;BME280_pressure;Samples;Min_cycle;Max_cycle;Signal;HPM_P1;HPM_P2
2021/12/20 00:01:19;;;;;;;9.80;2.58;;;20.20;62.20;;;;;;4510642;31;20120;-70
2021/12/20 00:03:45;;;;;;;9.75;2.53;;;20.20;62.20;;;;;;4512336;31;20121;-71
2021/12/20 00:06:11;;;;;;;10.07;2.40;;;20.20;62.30;;;;;;4497295;31;20139;-71
2021/12/20 00:08:38;;;;;;;10.60;2.38;;;20.20;62.30;;;;;;4498585;31;20697;-71
2021/12/20 00:11:04;;;;;;;11.35;2.85;;;20.20;62.30;;;;;;4471860;31;20132;-71
2021/12/20 00:13:30;;;;;;;6.47;1.90;;;20.10;62.30;;;;;;4511051;31;20262;-71
2021/12/20 00:15:56;;;;;;;7.93;2.35;;;20.10;62.30;;;;;;4512866;31;20181;-71
2021/12/20 00:18:22;;;;;;;9.00;2.05;;;20.10;62.30;;;;;;4497175;31;20143;-70
2021/12/20 00:20:48;;;;;;;9.80;2.45;;;20.10;62.30;;;;;;4513296;31;20140;-71
2021/12/20 00:23:14;;;;;;;9.10;2.65;;;20.10;62.30;;;;;;4510441;31;20151;-71
2021/12/20 00:25:40;;;;;;;9.77;2.45;;;20.10;62.40;;;;;;4498283;31;20267;-71
2021/12/20 00:28:06;;;;;;;6.97;2.15;;;20.00;62.30;;;;;;4484621;31;20151;-71
2021/12/20 00:30:33;;;;;;;7.97;2.28;;;20.00;62.30;;;;;;4510955;31;20193;-71
2021/12/20 00:32:59;;;;;;;7.43;2.28;;;20.00;62.30;;;;;;4512643;31;20120;-71
2021/12/20 00:35:25;;;;;;;6.30;2.20;;;20.00;62.30;;;;;;4510284;31;20128;-71
2021/12/20 00:40:37;;;;;;;10.70;2.35;;;20.00;62.40;;;;;;4511298;31;20132;-71
2021/12/20 00:43:04;;;;;;;8.85;2.40;;;20.00;62.40;;;;;;4498077;31;20605;-70
2021/12/20 00:45:32;;;;;;;7.18;2.08;;;20.00;63.30;;;;;;4510692;31;20113;-70
2021/12/20 00:47:58;;;;;;;6.32;1.80;;;20.00;62.40;;;;;;4511690;31;20183;-71
2021/12/20 00:50:26;;;;;;;6.47;1.92;;;19.90;62.40;;;;;;4512374;31;20229;-71
2021/12/20 00:52:53;;;;;;;8.70;2.15;;;19.90;62.40;;;;;;4510164;31;20144;-70
2021/12/20 00:55:20;;;;;;;8.57;2.40;;;19.90;62.40;;;;;;4512321;31;20171;-71
2021/12/20 00:57:48;;;;;;;3.92;1.70;;;19.90;62.40;;;;;;4510150;31;20139;-71
2021/12/20 01:00:18;;;;;;;6.53;1.70;;;19.90;62.40;;;;;;4510945;31;20717;-71
2021/12/20 01:02:49;;;;;;;7.97;2.17;;;19.80;62.40;;;;;;4511920;31;20711;-71
2021/12/20 01:05:16;;;;;;;5.22;1.65;;;19.90;62.40;;;;;;4496928;31;20143;-71
2021/12/20 01:07:41;;;;;;;7.40;1.90;;;19.80;62.40;;;;;;4510940;31;20214;-70
2021/12/20 01:10:09;;;;;;;6.35;1.98;;;19.80;62.40;;;;;;4509799;31;20132;-70
2021/12/20 01:12:59;;;;;;;6.75;1.70;;;19.80;62.40;;;;;;4496196;31;20132;-70
2021/12/20 01:15:31;;;;;;;6.22;2.00;;;19.80;62.30;;;;;;4511482;31;20216;-71
2021/12/20 01:17:57;;;;;;;5.93;1.85;;;19.80;62.40;;;;;;4510334;31;20719;-70
2021/12/20 01:20:23;;;;;;;7.30;2.25;;;19.80;62.40;;;;;;4511996;31;20158;-71
2021/12/20 01:22:51;;;;;;;6.97;1.90;;;19.80;62.40;;;;;;4509257;31;20689;-70
2021/12/20 01:25:18;;;;;;;6.03;1.67;;;19.80;62.50;;;;;;4512055;31;20557;-71
2021/12/20 01:27:45;;;;;;;4.78;1.77;;;19.70;62.40;;;;;;4509536;31;20286;-71
2021/12/20 01:30:13;;;;;;;6.07;1.65;;;19.70;62.40;;;;;;4511744;31;20564;-71
2021/12/20 01:32:40;;;;;;;6.82;2.10;;;19.70;62.50;;;;;;4510988;31;20112;-70
2021/12/20 01:35:07;;;;;;;5.82;1.73;;;19.70;62.50;;;;;;4511068;31;20144;-71
2021/12/20 01:37:33;;;;;;;7.63;2.08;;;19.70;62.40;;;;;;4511716;31;20147;-70
2021/12/20 01:39:59;;;;;;;6.43;1.40;;;19.70;62.50;;;;;;4509508;31;20364;-70
2021/12/20 01:42:29;;;;;;;5.45;1.75;;;19.70;62.40;;;;;;4511740;31;20132;-71
2021/12/20 01:44:57;;;;;;;5.63;1.83;;;19.70;63.30;;;;;;4510237;31;20167;-71
2021/12/20 01:47:30;;;;;;;5.93;1.77;;;19.70;62.50;;;;;;4510342;31;20164;-71
2021/12/20 01:50:02;;;;;;;5.63;1.55;;;19.60;62.50;;;;;;4511099;31;20143;-71
2021/12/20 01:52:39;;;;;;;5.70;1.60;;;19.60;62.50;;;;;;4510586;31;20383;-71
2021/12/20 01:55:15;;;;;;;5.40;1.83;;;19.60;62.50;;;;;;4510468;31;20154;-71
2021/12/20 01:57:41;;;;;;;7.15;1.88;;;19.60;62.60;;;;;;4510289;31;20128;-71
2021/12/20 02:00:10;;;;;;;5.03;1.58;;;19.60;62.60;;;;;;4511117;31;20154;-71
2021/12/20 02:02:36;;;;;;;4.45;1.60;;;19.60;62.60;;;;;;4509249;31;20248;-71
2021/12/20 02:05:16;;;;;;;9.32;1.45;;;19.50;62.60;;;;;;4509362;31;20126;-71
2021/12/20 02:08:00;;;;;;;7.68;1.98;;;19.50;62.60;;;;;;4511201;31;20287;-71
2021/12/20 02:10:26;;;;;;;6.15;1.80;;;19.60;62.60;;;;;;4510280;31;20181;-70
2021/12/20 02:12:52;;;;;;;4.50;1.70;;;19.50;62.60;;;;;;4510758;31;20124;-71
2021/12/20 02:15:18;;;;;;;6.13;2.03;;;19.50;62.60;;;;;;4510470;31;20124;-71
2021/12/20 02:17:44;;;;;;;5.75;1.42;;;19.50;62.50;;;;;;4509389;31;20142;-70
2021/12/20 02:20:26;;;;;;;5.07;1.83;;;19.50;62.60;;;;;;4496739;31;20132;-70
2021/12/20 02:22:55;;;;;;;6.60;1.53;;;19.50;62.60;;;;;;4509975;31;20164;-70
2021/12/20 02:25:21;;;;;;;5.78;1.75;;;19.50;62.60;;;;;;4511234;31;20241;-71
2021/12/20 02:27:47;;;;;;;5.18;1.20;;;19.50;62.50;;;;;;4508689;31;20128;-71
2021/12/20 02:30:37;;;;;;;4.43;1.38;;;19.50;62.50;;;;;;4509690;31;20275;-71
2021/12/20 02:38:32;;;;;;;3.22;1.30;;;19.40;62.60;;;;;;4510999;31;20135;-71
2021/12/20 02:41:02;;;;;;;3.28;1.10;;;19.40;62.50;;;;;;4509965;31;20128;-71
2021/12/20 02:43:29;;;;;;;7.18;1.90;;;19.40;62.60;;;;;;4510566;31;20147;-71
2021/12/20 02:46:02;;;;;;;5.13;1.38;;;19.40;62.60;;;;;;4510607;31;20143;-71
2021/12/20 02:48:27;;;;;;;5.07;1.60;;;19.40;62.60;;;;;;4509057;31;20154;-71
2021/12/20 02:50:54;;;;;;;4.90;1.30;;;19.40;62.60;;;;;;4509895;31;20124;-70
2021/12/20 02:53:20;;;;;;;4.57;1.40;;;19.40;62.60;;;;;;4508599;31;20128;-71
2021/12/20 02:55:47;;;;;;;3.47;1.20;;;19.40;62.60;;;;;;4509316;31;20150;-71
2021/12/20 02:58:14;;;;;;;4.55;1.30;;;19.30;62.50;;;;;;4495753;31;20695;-71
2021/12/20 03:00:42;;;;;;;4.40;1.30;;;19.30;62.50;;;;;;4510179;31;20139;-71
2021/12/20 03:03:08;;;;;;;4.63;1.20;;;19.30;62.50;;;;;;4509650;31;20353;-70
2021/12/20 03:05:35;;;;;;;3.72;1.13;;;19.30;62.50;;;;;;4495527;31;20200;-71
2021/12/20 03:08:03;;;;;;;6.15;1.17;;;19.30;62.60;;;;;;4509585;31;20133;-71
2021/12/20 03:10:30;;;;;;;5.03;1.50;;;19.30;62.60;;;;;;4508499;31;20140;-71
2021/12/20 03:12:57;;;;;;;4.07;1.33;;;19.30;62.60;;;;;;4509124;31;20143;-70
2021/12/20 03:15:26;;;;;;;3.05;1.13;;;19.30;62.50;;;;;;4496404;31;20308;-71
2021/12/20 03:17:53;;;;;;;3.60;1.40;;;19.30;62.60;;;;;;4498811;31;20147;-71
2021/12/20 03:20:20;;;;;;;4.20;1.35;;;19.30;62.60;;;;;;4513856;31;20193;-71
2021/12/20 03:22:46;;;;;;;3.30;1.55;;;19.20;62.50;;;;;;4512279;31;20124;-70
2021/12/20 03:25:12;;;;;;;4.95;1.40;;;19.20;62.60;;;;;;4512712;31;20136;-71
2021/12/20 03:27:38;;;;;;;4.07;1.30;;;19.30;62.60;;;;;;4512611;31;20595;-71
2021/12/20 03:30:07;;;;;;;3.47;1.25;;;19.30;62.60;;;;;;4513154;31;20151;-71
2021/12/20 03:32:33;;;;;;;4.00;1.20;;;19.30;62.60;;;;;;4511886;31;20128;-71
2021/12/20 03:34:59;;;;;;;4.15;1.30;;;19.30;62.60;;;;;;4498226;31;20189;-71
2021/12/20 03:37:25;;;;;;;5.28;1.20;;;19.20;62.60;;;;;;4499413;31;20124;-71
2021/12/20 03:39:51;;;;;;;2.85;1.10;;;19.20;62.60;;;;;;4512108;31;20893;-71
2021/12/20 03:42:19;;;;;;;2.60;1.13;;;19.20;62.70;;;;;;4512518;31;20596;-71
2021/12/20 03:44:47;;;;;;;5.20;1.42;;;19.20;62.60;;;;;;4498555;31;20124;-71
2021/12/20 03:47:13;;;;;;;4.43;1.23;;;19.20;62.60;;;;;;4498861;31;20131;-71
2021/12/20 03:49:41;;;;;;;4.35;1.13;;;19.20;62.60;;;;;;4511673;31;20216;-71
2021/12/20 03:52:07;;;;;;;4.50;1.42;;;19.20;62.70;;;;;;4511300;31;20139;-70
2021/12/20 03:54:34;;;;;;;3.95;1.17;;;19.20;62.70;;;;;;4513258;31;20665;-70
2021/12/20 03:57:01;;;;;;;2.92;1.02;;;19.20;62.60;;;;;;4511991;31;20136;-70
2021/12/20 03:59:28;;;;;;;3.42;1.35;;;19.10;62.60;;;;;;4486190;31;20174;-71
2021/12/20 04:01:55;;;;;;;2.40;0.93;;;19.10;62.60;;;;;;4497852;31;20132;-70
2021/12/20 04:04:21;;;;;;;3.58;1.00;;;19.10;62.60;;;;;;4498822;31;20132;-71
2021/12/20 04:06:46;;;;;;;3.72;1.00;;;19.10;62.60;;;;;;4512333;31;20135;-70
2021/12/20 04:09:12;;;;;;;2.67;0.77;;;19.10;62.60;;;;;;4512084;31;20312;-71
2021/12/20 04:11:38;;;;;;;2.67;1.13;;;19.10;62.60;;;;;;4513210;31;20125;-71
2021/12/20 04:14:04;;;;;;;2.95;1.30;;;19.10;62.60;;;;;;4510570;31;20148;-71
2021/12/20 04:16:30;;;;;;;2.28;1.00;;;19.10;62.60;;;;;;4512193;31;20132;-71
2021/12/20 04:18:56;;;;;;;2.17;0.90;;;19.10;62.70;;;;;;4510580;31;20258;-71
2021/12/20 04:21:22;;;;;;;3.60;0.80;;;19.10;62.70;;;;;;4511850;31;20143;-71
2021/12/20 04:23:48;;;;;;;3.55;1.10;;;19.10;62.70;;;;;;4512203;31;20120;-71
2021/12/20 04:26:14;;;;;;;3.00;1.02;;;19.10;62.70;;;;;;4510419;31;20116;-71
2021/12/20 04:28:41;;;;;;;3.67;1.15;;;19.00;62.60;;;;;;4512738;31;20169;-71
2021/12/20 04:31:07;;;;;;;3.22;1.13;;;19.00;63.50;;;;;;4510484;31;20140;-71
2021/12/20 04:33:33;;;;;;;1.90;0.60;;;19.00;62.70;;;;;;4498759;31;20136;-70
2021/12/20 04:35:59;;;;;;;3.03;1.00;;;19.00;62.70;;;;;;4497063;31;20131;-70
2021/12/20 04:38:28;;;;;;;2.70;0.90;;;19.00;63.50;;;;;;4511415;31;20125;-70
2021/12/20 04:40:54;;;;;;;3.97;1.08;;;18.90;62.60;;;;;;4510562;31;20143;-71
2021/12/20 04:43:20;;;;;;;4.13;1.08;;;19.00;62.70;;;;;;4511650;31;20192;-71
2021/12/20 04:45:46;;;;;;;2.88;0.93;;;19.00;62.70;;;;;;4498238;31;20580;-70
2021/12/20 04:48:12;;;;;;;2.53;0.95;;;19.00;62.70;;;;;;4511107;31;20152;-70
2021/12/20 04:50:39;;;;;;;1.85;0.82;;;19.00;62.70;;;;;;4511696;31;20112;-70
2021/12/20 04:53:05;;;;;;;2.55;0.98;;;19.00;62.70;;;;;;4509942;31;20181;-70
2021/12/20 04:55:32;;;;;;;2.35;0.82;;;19.00;62.70;;;;;;4511216;31;20154;-70
2021/12/20 04:58:01;;;;;;;2.47;0.75;;;19.00;62.70;;;;;;4510403;31;20136;-70
2021/12/20 05:00:33;;;;;;;2.08;0.70;;;18.90;62.60;;;;;;4512030;31;20278;-70
2021/12/20 05:02:59;;;;;;;3.63;0.95;;;18.90;62.60;;;;;;4511213;31;20196;-71
2021/12/20 05:05:25;;;;;;;2.38;0.95;;;18.90;62.60;;;;;;4496748;31;20132;-71
2021/12/20 05:07:54;;;;;;;2.60;0.80;;;18.90;62.60;;;;;;4511555;31;20124;-70
2021/12/20 05:10:32;;;;;;;3.05;0.90;;;18.90;62.70;;;;;;4509778;31;20159;-70
2021/12/20 05:13:02;;;;;;;3.55;0.82;;;18.90;62.70;;;;;;4510917;31;20133;-70
2021/12/20 05:15:28;;;;;;;2.50;0.80;;;18.80;62.50;;;;;;4511570;31;20139;-71
2021/12/20 05:17:55;;;;;;;3.13;1.02;;;18.80;62.60;;;;;;4511229;31;20179;-71
2021/12/20 05:20:21;;;;;;;4.00;1.10;;;18.90;62.60;;;;;;4510786;31;20140;-71
2021/12/20 05:22:48;;;;;;;2.88;1.33;;;18.90;62.70;;;;;;4509694;31;20128;-71
2021/12/20 05:25:14;;;;;;;1.83;0.90;;;18.90;62.70;;;;;;4497393;31;20147;-71
2021/12/20 05:27:40;;;;;;;2.33;1.00;;;18.80;62.60;;;;;;4510828;31;20124;-71
2021/12/20 05:30:08;;;;;;;3.40;0.85;;;18.80;62.60;;;;;;4497474;31;20204;-70
2021/12/20 05:32:35;;;;;;;2.88;0.98;;;18.80;62.60;;;;;;4510387;31;20128;-70
2021/12/20 05:35:01;;;;;;;2.33;1.00;;;18.80;62.50;;;;;;4510747;31;20135;-71
2021/12/20 05:37:34;;;;;;;2.65;1.00;;;18.80;62.60;;;;;;4486059;31;20144;-71
2021/12/20 05:40:00;;;;;;;3.25;1.00;;;18.80;62.60;;;;;;4510189;31;20130;-71
2021/12/20 05:42:26;;;;;;;2.78;0.77;;;18.80;62.60;;;;;;4510557;31;20136;-70
2021/12/20 05:44:54;;;;;;;2.33;0.80;;;18.80;62.60;;;;;;4496259;31;20140;-69
2021/12/20 05:47:22;;;;;;;4.38;0.90;;;18.70;62.50;;;;;;4510218;31;20245;-70
2021/12/20 05:49:51;;;;;;;2.22;0.80;;;18.70;62.50;;;;;;4511470;31;20593;-70
2021/12/20 05:52:18;;;;;;;3.53;0.80;;;18.70;62.50;;;;;;4483460;31;20127;-70
2021/12/20 05:54:44;;;;;;;3.92;1.27;;;18.70;62.50;;;;;;4510626;31;20237;-70
2021/12/20 05:57:10;;;;;;;3.17;0.90;;;18.70;62.50;;;;;;4509132;31;20192;-70
2021/12/20 05:59:37;;;;;;;2.72;0.70;;;18.70;62.50;;;;;;4510656;31;20120;-70
2021/12/20 06:02:04;;;;;;;2.05;0.90;;;18.70;62.50;;;;;;4510677;31;20151;-70
2021/12/20 06:04:30;;;;;;;2.80;0.80;;;18.70;62.50;;;;;;4510962;31;20140;-70
2021/12/20 06:06:56;;;;;;;2.95;1.20;;;18.70;62.50;;;;;;4509937;31;20139;-71
2021/12/20 06:09:23;;;;;;;2.33;0.80;;;18.70;62.50;;;;;;4510222;31;20112;-71
2021/12/20 06:11:48;;;;;;;3.33;0.98;;;18.70;62.50;;;;;;4510431;31;20579;-71
2021/12/20 06:14:15;;;;;;;2.70;1.00;;;18.70;62.50;;;;;;4509852;31;20321;-70
2021/12/20 06:16:41;;;;;;;3.20;0.75;;;18.60;62.40;;;;;;4497131;31;20132;-70
2021/12/20 06:19:07;;;;;;;3.47;1.00;;;18.70;62.60;;;;;;4510109;31;20186;-70
2021/12/20 06:21:34;;;;;;;1.95;0.88;;;18.60;62.50;;;;;;4510690;31;20132;-71
2021/12/20 06:24:00;;;;;;;2.95;0.77;;;18.60;62.50;;;;;;4510765;31;20252;-70
2021/12/20 06:26:26;;;;;;;2.17;0.80;;;18.60;62.50;;;;;;4508646;31;20627;-70
2021/12/20 06:28:53;;;;;;;2.75;0.88;;;18.60;62.60;;;;;;4510282;31;20117;-71
2021/12/20 06:31:19;;;;;;;3.42;1.10;;;18.60;62.60;;;;;;4509585;31;20132;-70
2021/12/20 06:33:45;;;;;;;2.88;0.85;;;18.60;62.50;;;;;;4510188;31;20202;-70
2021/12/20 06:36:11;;;;;;;2.40;1.08;;;18.60;62.60;;;;;;4508820;31;20250;-71
2021/12/20 06:38:43;;;;;;;2.08;0.77;;;18.60;62.60;;;;;;4509465;31;20148;-70
2021/12/20 06:41:10;;;;;;;1.80;0.70;;;18.60;62.60;;;;;;4509466;31;20144;-70
2021/12/20 06:43:36;;;;;;;2.33;0.70;;;18.50;63.10;;;;;;4508894;31;20136;-70
2021/12/20 06:46:02;;;;;;;2.10;0.80;;;18.50;62.60;;;;;;4510018;31;20131;-70
2021/12/20 06:48:29;;;;;;;2.40;0.80;;;18.50;62.60;;;;;;4509531;31;20250;-70
2021/12/20 06:50:54;;;;;;;2.15;0.82;;;18.50;62.60;;;;;;4499833;31;20121;-70
2021/12/20 06:53:20;;;;;;;2.00;0.77;;;18.50;62.70;;;;;;4485458;31;20143;-70
2021/12/20 06:55:46;;;;;;;2.92;0.77;;;18.50;62.60;;;;;;4513889;31;20128;-70
2021/12/20 06:58:12;;;;;;;2.75;0.70;;;18.50;62.60;;;;;;4513518;31;20292;-70
2021/12/20 07:00:40;;;;;;;2.65;0.63;;;18.50;62.70;;;;;;4513041;31;20132;-70
2021/12/20 07:03:07;;;;;;;3.00;0.85;;;18.50;62.70;;;;;;4513154;31;20136;-70
2021/12/20 07:05:33;;;;;;;1.65;0.77;;;18.50;62.60;;;;;;4498450;31;20121;-70
2021/12/20 07:07:59;;;;;;;2.45;0.80;;;18.50;62.70;;;;;;4514263;31;20191;-70
2021/12/20 07:10:25;;;;;;;1.95;0.60;;;18.50;62.70;;;;;;4511609;31;20193;-70
2021/12/20 07:12:51;;;;;;;2.05;0.80;;;18.40;62.60;;;;;;4513800;31;20112;-70
2021/12/20 07:15:18;;;;;;;3.55;0.70;;;18.40;62.70;;;;;;4512105;31;20124;-70
2021/12/20 07:17:44;;;;;;;1.83;0.80;;;18.40;62.70;;;;;;4498576;31;20187;-71
2021/12/20 07:20:11;;;;;;;1.27;0.60;;;18.40;62.70;;;;;;4512707;31;20161;-71
2021/12/20 07:22:37;;;;;;;1.95;0.60;;;18.40;62.70;;;;;;4498317;31;20120;-70
2021/12/20 07:25:04;;;;;;;1.80;0.60;;;18.40;62.70;;;;;;4513999;31;20132;-70
2021/12/20 07:27:30;;;;;;;1.80;0.80;;;18.40;62.70;;;;;;4512285;31;20127;-70
2021/12/20 07:29:57;;;;;;;1.52;0.52;;;18.40;62.70;;;;;;4513480;31;20136;-71
2021/12/20 07:32:24;;;;;;;1.42;0.57;;;18.40;62.70;;;;;;4512723;31;20156;-70
2021/12/20 07:34:50;;;;;;;3.17;0.98;;;18.30;62.60;;;;;;4512825;31;20121;-70
2021/12/20 07:37:17;;;;;;;1.80;0.73;;;18.40;62.70;;;;;;4513720;31;20142;-70
2021/12/20 07:39:43;;;;;;;2.85;0.88;;;18.30;62.70;;;;;;4511030;31;20504;-70
2021/12/20 07:42:09;;;;;;;2.72;0.90;;;18.30;62.70;;;;;;4513844;31;20273;-70
2021/12/20 07:44:35;;;;;;;1.63;0.52;;;18.30;62.70;;;;;;4511993;31;20140;-69
2021/12/20 07:47:02;;;;;;;1.52;0.80;;;18.30;62.70;;;;;;4499057;31;20223;-70
2021/12/20 07:49:28;;;;;;;3.15;0.98;;;18.30;62.70;;;;;;4511236;31;20128;-69
2021/12/20 07:51:54;;;;;;;3.10;0.77;;;18.30;62.80;;;;;;4512761;31;20218;-70
2021/12/20 07:54:21;;;;;;;2.38;0.82;;;18.30;62.70;;;;;;4512051;31;20147;-70
2021/12/20 07:56:47;;;;;;;1.17;0.52;;;18.20;62.70;;;;;;4510857;31;20210;-70
2021/12/20 07:59:12;;;;;;;1.73;0.70;;;18.20;62.80;;;;;;4499291;31;20116;-70
2021/12/20 08:01:39;;;;;;;2.20;0.68;;;18.20;62.80;;;;;;4510076;31;20309;-72
2021/12/20 08:04:07;;;;;;;4.30;1.20;;;18.20;62.80;;;;;;4511996;31;20124;-72
2021/12/20 08:06:33;;;;;;;6.80;2.03;;;18.20;62.40;;;;;;4498129;31;20175;-72
2021/12/20 08:08:59;;;;;;;5.45;1.60;;;18.20;61.10;;;;;;4511422;31;20136;-73
2021/12/20 08:11:25;;;;;;;4.50;1.63;;;18.10;60.50;;;;;;4511795;31;20135;-72
2021/12/20 08:13:51;;;;;;;4.75;1.35;;;18.10;60.70;;;;;;4497408;31;20128;-73
2021/12/20 08:16:19;;;;;;;6.35;1.95;;;18.10;61.00;;;;;;4513195;31;20258;-72
2021/12/20 08:18:46;;;;;;;4.38;1.70;;;18.10;60.90;;;;;;4511565;31;20523;-71
2021/12/20 08:21:15;;;;;;;4.22;1.50;;;18.10;60.90;;;;;;4499008;31;20112;-74
2021/12/20 08:23:41;;;;;;;3.55;1.45;;;18.10;60.90;;;;;;4511751;31;20137;-73
2021/12/20 08:26:08;;;;;;;4.65;1.55;;;18.10;60.80;;;;;;4511976;31;20151;-73
2021/12/20 08:28:35;;;;;;;4.03;1.50;;;18.20;60.70;;;;;;4511316;31;20124;-71
2021/12/20 08:31:06;;;;;;;3.90;1.55;;;18.30;60.50;;;;;;4511544;31;20124;-72
2021/12/20 08:33:32;;;;;;;3.75;1.40;;;18.40;60.40;;;;;;4512631;31;20124;-74
2021/12/20 08:36:00;;;;;;;3.13;1.30;;;18.50;60.10;;;;;;4497354;31;20112;-73
2021/12/20 08:38:27;;;;;;;6.72;1.88;;;18.70;59.90;;;;;;4511562;31;20680;-75
2021/12/20 08:40:53;;;;;;;4.78;1.58;;;18.70;59.50;;;;;;4511478;31;20128;-72
2021/12/20 08:43:20;;;;;;;7.60;1.58;;;18.80;59.20;;;;;;4511082;31;20146;-73
2021/12/20 08:45:46;;;;;;;5.38;1.55;;;19.00;59.00;;;;;;4512113;31;20266;-72
2021/12/20 08:48:12;;;;;;;4.25;1.55;;;19.10;58.80;;;;;;4510437;31;20604;-71
2021/12/20 08:50:41;;;;;;;4.00;1.30;;;19.20;58.60;;;;;;4511539;31;20151;-71
2021/12/20 08:53:10;;;;;;;6.95;1.60;;;19.30;58.20;;;;;;4510157;31;20135;-72
2021/12/20 08:55:37;;;;;;;4.38;1.23;;;19.40;57.90;;;;;;4510774;31;20133;-72
2021/12/20 08:58:04;;;;;;;4.60;1.63;;;19.50;57.60;;;;;;4497310;31;20270;-71
2021/12/20 09:00:32;;;;;;;4.70;1.65;;;19.60;57.40;;;;;;4510677;31;20589;-74
2021/12/20 09:03:01;;;;;;;4.63;1.38;;;19.70;57.10;;;;;;4511155;31;20132;-72
2021/12/20 09:05:29;;;;;;;4.88;1.35;;;19.90;56.90;;;;;;4510015;31;20136;-71
2021/12/20 09:07:57;;;;;;;4.80;1.33;;;20.00;56.60;;;;;;4511034;31;20124;-71
2021/12/20 09:10:24;;;;;;;3.22;1.23;;;20.10;56.30;;;;;;4510026;31;20159;-71
2021/12/20 09:12:49;;;;;;;3.75;1.27;;;20.20;56.00;;;;;;4496521;31;20112;-71
2021/12/20 09:15:17;;;;;;;2.85;1.08;;;20.40;55.80;;;;;;4511513;31;20264;-71
2021/12/20 09:17:52;;;;;;;3.40;1.50;;;20.40;55.40;;;;;;4511010;31;20266;-71
2021/12/20 09:20:21;;;;;;;5.80;1.35;;;20.60;55.30;;;;;;4511207;31;20121;-71
2021/12/20 09:22:52;;;;;;;2.70;1.30;;;20.70;55.00;;;;;;4510361;31;20128;-71
2021/12/20 09:25:24;;;;;;;2.88;1.20;;;20.80;54.70;;;;;;4510856;31;20146;-71
2021/12/20 09:27:52;;;;;;;3.35;1.35;;;21.00;54.50;;;;;;4510996;31;20121;-73
2021/12/20 09:30:19;;;;;;;3.25;1.17;;;21.10;54.20;;;;;;4511361;31;20128;-72
2021/12/20 09:32:45;;;;;;;1.80;0.82;;;21.20;54.00;;;;;;4510248;31;20140;-72
2021/12/20 09:35:12;;;;;;;3.65;1.23;;;21.30;53.80;;;;;;4510647;31;20294;-73
2021/12/20 09:37:39;;;;;;;3.38;1.00;;;21.40;53.70;;;;;;4504608;31;20206;-74
2021/12/20 09:40:14;;;;;;;3.78;1.10;;;21.50;53.50;;;;;;4493980;31;20242;-75
2021/12/20 09:42:52;;;;;;;2.95;1.15;;;21.60;53.50;;;;;;4495393;31;20133;-75
2021/12/20 09:45:23;;;;;;;2.28;1.10;;;21.70;53.50;;;;;;4494781;31;20128;-75
2021/12/20 09:47:50;;;;;;;4.15;1.08;;;21.70;53.40;;;;;;4494113;31;20124;-74
2021/12/20 09:50:18;;;;;;;3.53;1.10;;;21.70;53.50;;;;;;4494289;31;20139;-75
2021/12/20 09:52:45;;;;;;;2.65;1.00;;;21.60;53.60;;;;;;4492705;31;20286;-75
2021/12/20 09:55:14;;;;;;;2.65;1.20;;;21.60;53.90;;;;;;4495333;31;20143;-76
2021/12/20 09:57:42;;;;;;;3.53;1.10;;;21.50;54.10;;;;;;4496397;31;20152;-75
2021/12/20 10:00:10;;;;;;;4.18;1.23;;;21.40;54.30;;;;;;4504355;31;20262;-75
2021/12/20 10:02:36;;;;;;;2.55;1.00;;;21.30;54.60;;;;;;4495199;31;20151;-75
2021/12/20 10:05:04;;;;;;;3.08;1.10;;;21.30;54.70;;;;;;4494165;31;20267;-75
2021/12/20 10:07:32;;;;;;;5.28;1.15;;;21.20;54.90;;;;;;4496120;31;20218;-78
2021/12/20 10:10:00;;;;;;;1.50;0.88;;;21.20;55.10;;;;;;4495180;31;20124;-79
2021/12/20 10:12:27;;;;;;;3.63;1.02;;;21.10;55.30;;;;;;4494493;31;20135;-77
2021/12/20 10:14:58;;;;;;;4.20;0.98;;;21.10;55.40;;;;;;4493761;31;20137;-76
2021/12/20 10:17:26;;;;;;;3.05;1.10;;;21.00;55.60;;;;;;4494555;31;20155;-77
2021/12/20 10:19:53;;;;;;;2.85;1.20;;;21.00;55.60;;;;;;4494706;31;20125;-74
2021/12/20 10:22:30;;;;;;;2.78;0.80;;;21.00;56.70;;;;;;4493278;31;20143;-74
2021/12/20 10:24:58;;;;;;;3.30;1.48;;;20.90;55.90;;;;;;4495182;31;20578;-74
2021/12/20 10:27:32;;;;;;;4.00;0.82;;;20.90;55.90;;;;;;4494463;31;20152;-74
2021/12/20 10:29:59;;;;;;;2.67;0.90;;;20.90;55.90;;;;;;4493739;31;20141;-75
2021/12/20 10:32:42;;;;;;;2.20;1.15;;;20.90;56.00;;;;;;4493566;31;20148;-77
2021/12/20 10:35:27;;;;;;;2.25;0.88;;;20.90;56.00;;;;;;4479957;31;20266;-75
2021/12/20 10:37:55;;;;;;;4.50;1.10;;;20.90;56.00;;;;;;4494241;31;20571;-76
2021/12/20 10:40:21;;;;;;;2.65;1.05;;;20.90;55.90;;;;;;4494088;31;20135;-72
2021/12/20 10:42:49;;;;;;;3.83;1.30;;;20.80;55.60;;;;;;4493867;32;20142;-73
2021/12/20 10:45:19;;;;;;;2.65;0.90;;;20.80;56.60;;;;;;4494479;31;20135;-78
2021/12/20 10:47:47;;;;;;;6.10;1.42;;;20.90;55.90;;;;;;4494460;32;20132;-74
2021/12/20 10:50:45;;;;;;;3.95;1.48;;;20.80;55.90;;;;;;4480835;32;20191;-75
2021/12/20 10:53:21;;;;;;;5.13;1.00;;;20.90;56.00;;;;;;4494473;32;20338;-75
2021/12/20 10:55:51;;;;;;;6.57;1.20;;;20.90;56.10;;;;;;4494310;32;20116;-73
2021/12/20 10:58:36;;;;;;;3.92;0.98;;;20.90;56.10;;;;;;4495562;31;20150;-81
2021/12/20 11:04:13;;;;;;;2.58;1.10;;;20.90;56.20;;;;;;4479268;31;20148;-74
2021/12/20 11:09:17;;;;;;;2.30;1.00;;;20.90;56.30;;;;;;4493943;32;20135;-76
2021/12/20 11:11:55;;;;;;;3.97;1.17;;;20.90;56.20;;;;;;4494145;32;20143;-75
2021/12/20 11:14:26;;;;;;;3.30;1.42;;;21.00;56.40;;;;;;4493653;32;20168;-78
2021/12/20 11:16:55;;;;;;;4.78;1.33;;;20.90;56.30;;;;;;4494856;32;20131;-76
2021/12/20 11:19:26;;;;;;;3.85;1.10;;;21.00;56.50;;;;;;4493085;32;20124;-74
2021/12/20 11:21:57;;;;;;;7.50;1.50;;;20.90;56.50;;;;;;4494382;32;20115;-73
2021/12/20 11:24:44;;;;;;;7.47;1.45;;;20.90;56.60;;;;;;4494866;32;20159;-74
2021/12/20 11:27:18;;;;;;;6.40;1.52;;;20.90;56.20;;;;;;4493557;32;20530;-76
2021/12/20 11:29:46;;;;;;;5.60;1.70;;;20.90;55.70;;;;;;4493795;32;20566;-76
2021/12/20 11:32:13;;;;;;;6.22;1.80;;;20.90;55.60;;;;;;4493738;31;20127;-77
2021/12/20 11:34:41;;;;;;;4.72;1.95;;;20.80;55.40;;;;;;4493832;31;20171;-77
2021/12/20 11:37:12;;;;;;;10.80;1.85;;;20.80;55.50;;;;;;4495569;31;20124;-72
2021/12/20 11:39:39;;;;;;;6.75;2.08;;;20.80;55.50;;;;;;4496952;31;20140;-74
2021/12/20 11:42:07;;;;;;;6.20;1.60;;;20.80;55.50;;;;;;4497272;31;20151;-73
2021/12/20 11:44:35;;;;;;;4.75;1.70;;;20.80;55.60;;;;;;4495535;31;20132;-74
2021/12/20 11:47:07;;;;;;;3.42;1.40;;;20.80;55.70;;;;;;4497241;31;20613;-72
2021/12/20 11:49:33;;;;;;;4.10;1.75;;;20.80;55.70;;;;;;4497331;31;20147;-72
2021/12/20 11:52:27;;;;;;;12.98;1.95;;;20.80;55.80;;;;;;4495395;31;20192;-74
2021/12/20 11:54:53;;;;;;;5.97;1.75;;;20.80;55.80;;;;;;4494975;31;20274;-75
2021/12/20 11:57:29;;;;;;;8.63;2.00;;;20.80;55.80;;;;;;4495906;31;20198;-73
2021/12/20 12:00:00;;;;;;;4.45;1.42;;;20.80;55.90;;;;;;4495969;31;20140;-73
2021/12/20 12:02:29;;;;;;;5.47;1.63;;;20.90;56.00;;;;;;4495970;31;20506;-76
2021/12/20 12:05:09;;;;;;;3.92;1.50;;;20.90;56.00;;;;;;4496322;31;20144;-75
2021/12/20 12:07:37;;;;;;;6.63;2.00;;;20.90;56.10;;;;;;4497680;31;20133;-75
2021/12/20 12:10:07;;;;;;;6.60;1.50;;;20.90;56.10;;;;;;4495780;31;20631;-74
2021/12/20 12:12:39;;;;;;;6.60;1.70;;;20.80;56.10;;;;;;4497209;31;20143;-76
2021/12/20 12:15:13;;;;;;;11.52;1.75;;;20.80;56.10;;;;;;4496222;31;20135;-74
2021/12/20 12:18:10;;;;;;;7.78;1.55;;;20.80;56.10;;;;;;4495447;31;20125;-77
2021/12/20 12:20:47;;;;;;;8.57;2.00;;;20.70;56.00;;;;;;4496731;31;20128;-72
2021/12/20 12:23:21;;;;;;;11.07;2.55;;;20.70;55.70;;;;;;4495832;31;20139;-72
2021/12/20 12:25:49;;;;;;;10.70;2.50;;;20.70;55.40;;;;;;4496631;31;20136;-80
2021/12/20 12:28:23;;;;;;;9.75;2.40;;;20.60;55.20;;;;;;4496463;31;20161;-79
2021/12/20 12:31:02;;;;;;;6.35;2.00;;;20.60;55.10;;;;;;4496006;31;20136;-82
2021/12/20 12:33:33;;;;;;;10.60;2.25;;;20.60;55.10;;;;;;4495893;31;20170;-85
2021/12/20 12:36:05;;;;;;;9.18;2.30;;;20.60;55.30;;;;;;4495836;31;20190;-84
2021/12/20 12:38:34;;;;;;;5.75;2.05;;;20.60;55.40;;;;;;4496236;31;20125;-85
2021/12/20 12:41:11;;;;;;;9.65;2.45;;;20.50;55.30;;;;;;4495317;31;20148;-82
2021/12/20 12:44:00;;;;;;;9.50;2.20;;;20.60;55.40;;;;;;4495667;31;20129;-83
2021/12/20 12:46:42;;;;;;;5.65;1.75;;;20.60;55.50;;;;;;4496520;31;20136;-81
2021/12/20 12:49:23;;;;;;;6.25;2.00;;;20.60;55.60;;;;;;4495558;31;20644;-84
2021/12/20 12:51:54;;;;;;;8.27;2.10;;;20.50;55.70;;;;;;4495687;31;20139;-80
2021/12/20 12:54:43;;;;;;;9.27;2.10;;;20.60;55.80;;;;;;4496426;31;20132;-67
2021/12/20 12:57:12;;;;;;;6.53;2.00;;;20.50;55.80;;;;;;4493829;31;20120;-71
2021/12/20 12:59:50;;;;;;;8.95;1.90;;;20.50;55.90;;;;;;4496375;31;20229;-69
2021/12/20 13:02:29;;;;;;;8.88;1.88;;;20.50;56.00;;;;;;4495520;31;20195;-70
2021/12/20 13:05:06;;;;;;;13.05;2.00;;;20.50;56.10;;;;;;4494172;31;20190;-71
2021/12/20 13:07:37;;;;;;;16.88;2.15;;;20.50;56.10;;;;;;4496490;31;20771;-72